Nearby METAR Reports

 

KDWH - Houston/Dw Hooks, Texas, USA
Distance from station: WNW 3mi, 6km
Updated: 06/14/2021 9:53am
Clear
Clear
 Wind from calm
Wind: Calm
Temperature: 90°F , 32°C
Heat Index: 97°F , 36°C
Dew Point: 72°F , 22°C
Humidity: 55%
Barometer: 29.95 inHg , 1014.2 hPa
Clouds: Clear
Visibility: 10 miles , 16 km
2021/06/14 14:53 KDWH 141453Z 00000KT 10SM CLR 32/22 A2995 RMK AO2 SLP141 T03170217 50001
KIAH - Houston/Intnl, Texas, USA
Distance from station: ESE 9mi, 14km
Updated: 06/14/2021 9:53am
Few Clouds
Few Clouds
 Wind from calm
Wind: Calm
Temperature: 88°F , 31°C
Heat Index: 93°F , 34°C
Dew Point: 70°F , 21°C
Humidity: 55%
Barometer: 29.95 inHg , 1014.2 hPa
Clouds: Few Clouds
Visibility: 10 miles , 16 km
Cloud details: Few Clouds 25000 ft
2021/06/14 14:53 KIAH 141453Z 00000KT 10SM FEW250 31/21 A2995 RMK AO2 SLP141 T03110206 51005
 
KCXO - Conroe, Texas, USA
Distance from station: NNE 21mi, 34km
Updated: 06/14/2021 9:53am
Clear
Clear
 Wind from NE
Wind: NE 3 mph , 6 km/h
Temperature: 84°F , 29°C
Heat Index: 89°F , 32°C
Dew Point: 72°F , 22°C
Humidity: 66%
Barometer: 29.97 inHg , 1014.9 hPa
Clouds: Clear
Visibility: 10 miles , 16 km
2021/06/14 14:53 KCXO 141453Z 05003KT 10SM CLR 29/22 A2997 RMK AO2 SLP145 T02890217 51005
KMCJ - Houston/Univ, Texas, USA
Distance from station: SSE 24mi, 39km
Updated: 06/14/2021 9:55am
Clear
Clear
 Wind from calm
Wind: Calm
Temperature: 88°F , 31°C
Heat Index: 96°F , 36°C
Dew Point: 73°F , 23°C
Humidity: 62%
Barometer: 29.94 inHg , 1013.9 hPa
Clouds: Clear
Visibility: 10 miles , 16 km
2021/06/14 14:55 KMCJ 141455Z AUTO 00000KT 10SM CLR 31/23 A2994 RMK A01
 
KTME - Houston Exec, Texas, USA
Distance from station: SW 30mi, 48km
Updated: 06/14/2021 9:55am
Clear
Clear
 Wind from varies
Wind: varies 3 mph , 6 km/h
Temperature: 86°F , 30°C
Heat Index: 97°F , 36°C
Dew Point: 77°F , 25°C
Humidity: 75%
Barometer: 29.97 inHg , 1014.9 hPa
Clouds: Clear
Visibility: 9 miles , 14 km
2021/06/14 14:55 KTME 141455Z AUTO VRB03KT 9SM CLR 30/25 A2997 RMK AO2
KHOU - Houston/Hobby, Texas, USA
Distance from station: SSE 32mi, 51km
Updated: 06/14/2021 9:53am
Partly cloudy
Partly cloudy
 Wind from varies
Wind: varies 5 mph , 7 km/h
Temperature: 91°F , 33°C
Heat Index: 100°F , 38°C
Dew Point: 73°F , 23°C
Humidity: 56%
Barometer: 29.94 inHg , 1013.9 hPa
Clouds: Partly cloudy
Visibility: 10 miles , 16 km
Cloud details: Few Clouds 12000 ft
Partly cloudy 28000 ft
2021/06/14 14:53 KHOU 141453Z VRB04KT 10SM FEW120 SCT280 33/23 A2994 RMK AO2 SLP142 T03280233 50006
 
KSGR - Houston/Sugar La, Texas, USA
Distance from station: SSW 32mi, 51km
Updated: 06/14/2021 9:53am
Clear
Clear
 Wind from NW
Wind: NW 7 mph , 11 km/h
Temperature: 88°F , 31°C
Heat Index: 100°F , 38°C
Dew Point: 77°F , 25°C
Humidity: 70%
Barometer: 29.95 inHg , 1014.2 hPa
Clouds: Clear
Visibility: 10 miles , 16 km
2021/06/14 14:53 KSGR 141453Z 31006KT 10SM CLR 31/25 A2995 RMK AO2 SLP142 T03110250 50004
K6R3 - Cleveland Muni, Texas, USA
Distance from station: NE 36mi, 58km
Updated: 06/14/2021 9:55am
Clear
Clear
 Wind from calm
Wind: Calm
Temperature: 84°F , 29°C
Heat Index: 88°F , 31°C
Dew Point: 70°F , 21°C
Humidity: 62%
Barometer: 29.97 inHg , 1014.9 hPa
Clouds: Clear
Visibility: 10 miles , 16 km
2021/06/14 14:55 K6R3 141455Z AUTO 00000KT 10SM CLR 29/21 A2997 RMK AO2 T02850211
 
KAXH - Houston/Southwst, Texas, USA
Distance from station: S 37mi, 60km
Updated: 06/14/2021 9:55am
Clear
Clear
 Wind from calm
Wind: Calm
Temperature: 88°F , 31°C
Heat Index: 100°F , 38°C
Dew Point: 77°F , 25°C
Humidity: 70%
Barometer: 29.96 inHg , 1014.6 hPa
Clouds: Clear
Visibility: 10 miles , 16 km
2021/06/14 14:55 KAXH 141455Z AUTO 00000KT 10SM CLR 31/25 A2996 RMK AO2 T03100254
KEFD - Houston/Ellingto, Texas, USA
Distance from station: SSE 37mi, 60km
Updated: 06/14/2021 9:50am
Clear
Clear
 Wind from NNW
Wind: NNW 6 mph , 9 km/h
Temperature: 88°F , 31°C
Heat Index: 98°F , 37°C
Dew Point: 75°F , 24°C
Humidity: 66%
Barometer: 29.94 inHg , 1013.9 hPa
Clouds: Clear
Visibility: 10 miles , 16 km
2021/06/14 14:50 KEFD 141450Z 34005KT 10SM CLR 31/24 A2994
 
KLVJ - Houston, Texas, USA
Distance from station: SSE 40mi, 64km
Updated: 06/14/2021 9:53am
Clear
Clear
 Wind from varies
Wind: varies 3 mph , 6 km/h
Temperature: 88°F , 31°C
Heat Index: 98°F , 37°C
Dew Point: 75°F , 24°C
Humidity: 66%
Barometer: 29.96 inHg , 1014.6 hPa
Clouds: Clear
Visibility: 10 miles , 16 km
2021/06/14 14:53 KLVJ 141453Z AUTO VRB03KT 10SM CLR 31/24 A2996 RMK AO2 SLP144 T03110239 50008
KUTS - Huntsville, Texas, USA
Distance from station: N 48mi, 78km
Updated: 06/14/2021 9:53am
Clear
Clear
 Wind from varies
Wind: varies 3 mph , 6 km/h
Temperature: 88°F , 31°C
Heat Index: 98°F , 37°C
Dew Point: 75°F , 24°C
Humidity: 66%
Barometer: 29.98 inHg , 1015.2 hPa
Clouds: Clear
Visibility: 10 miles , 16 km
2021/06/14 14:53 KUTS 141453Z AUTO VRB03KT 10SM CLR 31/24 A2998 RMK AO2 SLP146 T03060244 53008